Time;durP1;ratioP1;P1;durP2;ratioP2;P2;SDS_P1;SDS_P2;PMS_P1;PMS_P2;Temp;Humidity;BMP_temperature;BMP_pressure;BME280_temperature;BME280_humidity;BME280_pressure;Samples;Min_cycle;Max_cycle;Signal;HPM_P1;HPM_P2
2021/01/05 00:00:50;;;;;;;12.70;10.35;;;;;;;;;;4931929;29;20727;-75
2021/01/05 00:03:16;;;;;;;15.15;10.90;;;;;;;;;;4931797;29;20607;-75
2021/01/05 00:05:43;;;;;;;13.80;10.38;;;;;;;;;;4932264;29;20795;-76
2021/01/05 00:08:10;;;;;;;14.30;11.32;;;;;;;;;;4932668;29;20203;-76
2021/01/05 00:10:37;;;;;;;17.25;11.95;;;;;;;;;;4934793;29;20612;-76
2021/01/05 00:13:04;;;;;;;12.25;10.15;;;;;;;;;;4934762;29;20582;-75
2021/01/05 00:15:31;;;;;;;12.75;10.48;;;;;;;;;;4917543;29;20209;-75
2021/01/05 00:17:58;;;;;;;15.93;10.98;;;;;;;;;;4931003;29;20672;-76
2021/01/05 00:20:27;;;;;;;14.45;10.90;;;;;;;;;;4929296;29;20202;-75
2021/01/05 00:22:54;;;;;;;15.43;10.88;;;;;;;;;;4914891;29;20231;-75
2021/01/05 00:25:21;;;;;;;15.40;10.20;;;;;;;;;;4931733;29;20735;-74
2021/01/05 00:27:48;;;;;;;17.02;11.35;;;;;;;;;;4915205;29;20562;-76
2021/01/05 00:30:18;;;;;;;14.90;12.75;;;;;;;;;;4915332;29;20532;-75
2021/01/05 00:32:45;;;;;;;15.82;11.35;;;;;;;;;;4917551;29;20320;-75
2021/01/05 00:35:14;;;;;;;14.63;10.55;;;;;;;;;;4917571;29;20206;-75
2021/01/05 00:37:40;;;;;;;14.05;11.52;;;;;;;;;;4934090;29;20864;-75
2021/01/05 00:40:08;;;;;;;15.15;11.20;;;;;;;;;;4931033;29;20577;-76
2021/01/05 00:42:35;;;;;;;18.00;12.60;;;;;;;;;;4911806;29;20339;-75
2021/01/05 00:45:02;;;;;;;16.75;10.95;;;;;;;;;;4914348;29;20289;-75
2021/01/05 00:47:30;;;;;;;14.55;11.02;;;;;;;;;;4931785;29;20274;-75
2021/01/05 00:49:56;;;;;;;15.05;10.57;;;;;;;;;;4931861;29;20222;-75
2021/01/05 00:52:23;;;;;;;14.05;10.77;;;;;;;;;;4931830;29;20211;-75
2021/01/05 00:54:50;;;;;;;15.70;11.38;;;;;;;;;;4933960;29;20203;-76
2021/01/05 00:57:17;;;;;;;16.60;11.35;;;;;;;;;;4933859;29;20287;-75
2021/01/05 00:59:44;;;;;;;18.30;12.32;;;;;;;;;;4933980;29;20254;-75
2021/01/05 01:02:13;;;;;;;16.55;11.68;;;;;;;;;;4931119;29;20290;-75
2021/01/05 01:04:41;;;;;;;16.85;12.30;;;;;;;;;;4928663;29;20245;-75
2021/01/05 01:07:07;;;;;;;18.05;13.32;;;;;;;;;;4914456;29;20203;-75
2021/01/05 01:09:34;;;;;;;16.85;12.27;;;;;;;;;;4932740;29;20210;-76
2021/01/05 01:12:03;;;;;;;16.10;10.98;;;;;;;;;;4931901;29;20222;-75
2021/01/05 01:14:30;;;;;;;15.65;11.50;;;;;;;;;;4932064;29;20205;-77
2021/01/05 01:16:57;;;;;;;16.98;12.43;;;;;;;;;;4933816;29;20257;-75
2021/01/05 01:19:24;;;;;;;16.70;12.20;;;;;;;;;;4936861;29;20209;-76
2021/01/05 01:21:52;;;;;;;18.33;11.18;;;;;;;;;;4937363;29;20289;-75
2021/01/05 01:24:20;;;;;;;17.90;12.85;;;;;;;;;;4935345;29;20218;-76
2021/01/05 01:26:47;;;;;;;18.30;12.00;;;;;;;;;;4931731;29;20214;-76
2021/01/05 01:29:15;;;;;;;18.67;13.15;;;;;;;;;;4934168;29;20675;-75
2021/01/05 01:31:42;;;;;;;18.83;12.20;;;;;;;;;;4935235;29;20227;-75
2021/01/05 01:34:09;;;;;;;15.23;11.95;;;;;;;;;;4935449;29;20203;-76
2021/01/05 01:36:37;;;;;;;16.48;12.02;;;;;;;;;;4934627;29;20210;-75
2021/01/05 01:39:06;;;;;;;14.65;11.27;;;;;;;;;;4937130;29;20230;-75
2021/01/05 01:41:33;;;;;;;18.65;12.60;;;;;;;;;;4937067;29;20202;-75
2021/01/05 01:44:00;;;;;;;16.33;12.10;;;;;;;;;;4920284;29;20560;-75
2021/01/05 01:46:30;;;;;;;17.70;11.40;;;;;;;;;;4935245;29;20648;-75
2021/01/05 01:48:57;;;;;;;17.08;11.85;;;;;;;;;;4914984;29;20198;-75
2021/01/05 01:51:24;;;;;;;17.67;12.52;;;;;;;;;;4933763;29;20225;-75
2021/01/05 01:54:06;;;;;;;18.65;12.15;;;;;;;;;;4934542;29;20618;-75
2021/01/05 01:56:41;;;;;;;16.52;11.30;;;;;;;;;;4920121;29;20199;-75
2021/01/05 01:59:20;;;;;;;20.40;13.65;;;;;;;;;;4934601;29;20203;-75
2021/01/05 02:01:52;;;;;;;20.63;13.40;;;;;;;;;;4936680;29;20223;-75
2021/01/05 02:04:36;;;;;;;15.23;11.05;;;;;;;;;;4936686;29;20266;-76
2021/01/05 02:07:12;;;;;;;14.88;11.10;;;;;;;;;;4937102;29;20205;-75
2021/01/05 02:09:45;;;;;;;17.40;11.55;;;;;;;;;;4932597;29;20546;-76
2021/01/05 02:12:16;;;;;;;18.00;12.50;;;;;;;;;;4931911;29;20638;-75
2021/01/05 02:14:50;;;;;;;15.20;11.07;;;;;;;;;;4934077;29;20209;-75
2021/01/05 02:17:28;;;;;;;17.05;11.27;;;;;;;;;;4934366;29;20233;-76
2021/01/05 02:19:57;;;;;;;15.73;11.20;;;;;;;;;;4934530;29;20207;-78
2021/01/05 02:22:29;;;;;;;17.30;11.10;;;;;;;;;;4918222;29;20257;-76
2021/01/05 02:25:00;;;;;;;19.60;12.65;;;;;;;;;;4936075;29;20290;-76
2021/01/05 02:27:28;;;;;;;16.52;11.00;;;;;;;;;;4936378;29;20234;-76
2021/01/05 02:29:57;;;;;;;18.23;12.52;;;;;;;;;;4935715;29;20822;-76
2021/01/05 02:32:28;;;;;;;16.40;11.40;;;;;;;;;;4931016;29;20219;-75
2021/01/05 02:35:09;;;;;;;17.25;12.13;;;;;;;;;;4931259;29;20684;-75
2021/01/05 02:37:40;;;;;;;18.77;12.48;;;;;;;;;;4919006;29;20603;-75
2021/01/05 02:40:22;;;;;;;17.75;11.70;;;;;;;;;;4933811;29;20205;-75
2021/01/05 02:42:58;;;;;;;20.30;12.73;;;;;;;;;;4918440;29;20236;-74
2021/01/05 02:45:27;;;;;;;18.58;12.68;;;;;;;;;;4916906;29;20279;-75
2021/01/05 02:48:00;;;;;;;18.45;12.32;;;;;;;;;;4916964;29;20222;-75
2021/01/05 02:50:38;;;;;;;16.45;11.70;;;;;;;;;;4916926;29;20204;-75
2021/01/05 02:53:19;;;;;;;16.30;11.43;;;;;;;;;;4920013;29;20375;-75
2021/01/05 02:56:00;;;;;;;17.45;11.80;;;;;;;;;;4930368;29;20273;-75
2021/01/05 02:58:39;;;;;;;19.77;12.10;;;;;;;;;;4917828;29;20284;-75
2021/01/05 03:01:16;;;;;;;16.70;12.13;;;;;;;;;;4933502;29;20209;-75
2021/01/05 03:03:45;;;;;;;21.00;11.35;;;;;;;;;;4933312;29;20326;-75
2021/01/05 03:06:27;;;;;;;19.33;12.07;;;;;;;;;;4916902;29;20297;-75
2021/01/05 03:09:00;;;;;;;17.25;12.18;;;;;;;;;;4934730;29;20254;-76
2021/01/05 03:11:29;;;;;;;15.38;11.20;;;;;;;;;;4918693;29;20209;-76
2021/01/05 03:14:01;;;;;;;19.17;12.50;;;;;;;;;;4935692;29;20231;-76
2021/01/05 03:16:31;;;;;;;18.10;12.23;;;;;;;;;;4931796;29;20202;-75
2021/01/05 03:19:04;;;;;;;17.75;11.50;;;;;;;;;;4930517;29;20196;-77
2021/01/05 03:21:33;;;;;;;18.27;12.32;;;;;;;;;;4932786;29;20675;-76
2021/01/05 03:24:00;;;;;;;18.85;12.25;;;;;;;;;;4933041;29;20288;-75
2021/01/05 03:26:32;;;;;;;19.05;12.68;;;;;;;;;;4933635;29;20194;-76
2021/01/05 03:29:00;;;;;;;16.05;11.73;;;;;;;;;;4933363;29;20299;-76
2021/01/05 03:31:32;;;;;;;16.58;11.70;;;;;;;;;;4935032;29;20214;-76
2021/01/05 03:34:00;;;;;;;17.67;11.98;;;;;;;;;;4935058;29;20206;-76
2021/01/05 03:36:27;;;;;;;19.27;13.18;;;;;;;;;;4918568;29;20249;-77
2021/01/05 03:38:54;;;;;;;17.42;12.52;;;;;;;;;;4931131;29;20205;-75
2021/01/05 03:41:21;;;;;;;17.73;11.57;;;;;;;;;;4929579;29;20250;-76
2021/01/05 03:43:48;;;;;;;22.23;12.35;;;;;;;;;;4932073;29;20254;-75
2021/01/05 03:46:15;;;;;;;18.08;11.25;;;;;;;;;;4932460;29;20238;-76
2021/01/05 03:48:42;;;;;;;17.05;12.10;;;;;;;;;;4933215;29;20246;-76
2021/01/05 03:51:09;;;;;;;20.45;12.15;;;;;;;;;;4933016;29;20213;-76
2021/01/05 03:53:36;;;;;;;18.02;12.35;;;;;;;;;;4917867;29;20237;-76
2021/01/05 03:56:03;;;;;;;17.13;11.75;;;;;;;;;;4934853;29;20290;-76
2021/01/05 03:58:29;;;;;;;19.08;12.93;;;;;;;;;;4934770;29;20209;-76
2021/01/05 04:00:56;;;;;;;18.77;12.40;;;;;;;;;;4930930;29;20483;-75
2021/01/05 04:03:24;;;;;;;18.90;12.60;;;;;;;;;;4929387;29;20227;-76
2021/01/05 04:05:51;;;;;;;19.13;12.20;;;;;;;;;;4931850;29;20447;-76
2021/01/05 04:08:17;;;;;;;18.50;13.23;;;;;;;;;;4932474;29;20685;-75
2021/01/05 04:10:44;;;;;;;18.17;11.30;;;;;;;;;;4932456;29;20469;-76
2021/01/05 04:13:11;;;;;;;18.77;12.68;;;;;;;;;;4932275;29;20254;-76
2021/01/05 04:15:38;;;;;;;18.30;12.40;;;;;;;;;;4934416;29;20284;-75
2021/01/05 04:18:05;;;;;;;18.75;10.85;;;;;;;;;;4934522;29;20243;-76
2021/01/05 04:20:33;;;;;;;18.98;11.77;;;;;;;;;;4917717;29;20293;-75
2021/01/05 04:23:00;;;;;;;20.13;13.05;;;;;;;;;;4931010;29;20219;-75
2021/01/05 04:25:27;;;;;;;21.27;12.60;;;;;;;;;;4928895;29;20196;-75
2021/01/05 04:27:54;;;;;;;19.40;12.50;;;;;;;;;;4931677;29;20195;-76
2021/01/05 04:30:22;;;;;;;21.55;13.10;;;;;;;;;;4932037;29;20286;-75
2021/01/05 04:32:49;;;;;;;19.80;12.30;;;;;;;;;;4932003;29;20720;-75
2021/01/05 04:35:17;;;;;;;20.85;13.20;;;;;;;;;;4915171;29;20217;-75
2021/01/05 04:37:45;;;;;;;19.15;11.85;;;;;;;;;;4934009;29;20270;-76
2021/01/05 04:40:21;;;;;;;17.10;12.00;;;;;;;;;;4934123;29;20207;-76
2021/01/05 04:42:49;;;;;;;17.45;12.25;;;;;;;;;;4934236;29;20325;-76
2021/01/05 04:45:21;;;;;;;18.58;11.40;;;;;;;;;;4931198;29;20843;-75
2021/01/05 04:47:51;;;;;;;23.27;14.60;;;;;;;;;;4928690;29;20542;-75
2021/01/05 04:50:23;;;;;;;17.25;11.85;;;;;;;;;;4914473;29;20202;-75
2021/01/05 04:52:57;;;;;;;20.30;13.27;;;;;;;;;;4933700;29;20277;-76
2021/01/05 04:55:33;;;;;;;19.95;12.55;;;;;;;;;;4936297;29;20298;-75
2021/01/05 04:58:04;;;;;;;17.35;12.57;;;;;;;;;;4936462;29;20305;-76
2021/01/05 05:00:35;;;;;;;19.88;12.13;;;;;;;;;;4937760;29;20289;-76
2021/01/05 05:03:04;;;;;;;18.10;12.40;;;;;;;;;;4937620;29;20245;-75
2021/01/05 05:05:39;;;;;;;16.00;11.35;;;;;;;;;;4937692;29;20199;-76
2021/01/05 05:08:21;;;;;;;17.20;11.07;;;;;;;;;;4933743;29;20194;-76
2021/01/05 05:10:50;;;;;;;16.88;10.38;;;;;;;;;;4933040;29;20199;-75
2021/01/05 05:13:25;;;;;;;17.08;11.52;;;;;;;;;;4935374;29;20596;-77
2021/01/05 05:15:55;;;;;;;20.75;13.70;;;;;;;;;;4935171;29;20195;-76
2021/01/05 05:18:31;;;;;;;17.13;11.18;;;;;;;;;;4935756;29;20274;-75
2021/01/05 05:21:08;;;;;;;18.00;12.27;;;;;;;;;;4919383;29;20727;-76
2021/01/05 05:23:36;;;;;;;19.45;11.63;;;;;;;;;;4937408;29;20680;-77
2021/01/05 05:26:08;;;;;;;19.77;11.40;;;;;;;;;;4937546;29;20205;-77
2021/01/05 05:28:40;;;;;;;22.55;11.85;;;;;;;;;;4920552;29;20207;-76
2021/01/05 05:31:07;;;;;;;20.10;12.95;;;;;;;;;;4931813;29;20222;-76
2021/01/05 05:33:37;;;;;;;20.60;12.65;;;;;;;;;;4915875;29;20226;-76
2021/01/05 05:36:09;;;;;;;22.27;11.85;;;;;;;;;;4935587;29;20655;-77
2021/01/05 05:38:50;;;;;;;16.85;11.55;;;;;;;;;;4918194;29;20293;-77
2021/01/05 05:41:24;;;;;;;20.35;13.10;;;;;;;;;;4933798;29;20363;-76
2021/01/05 05:43:57;;;;;;;18.02;12.13;;;;;;;;;;4917894;29;20238;-76
2021/01/05 05:46:27;;;;;;;20.33;12.50;;;;;;;;;;4918200;29;20289;-77
2021/01/05 05:48:58;;;;;;;22.77;11.48;;;;;;;;;;4918110;29;20200;-76
2021/01/05 05:51:28;;;;;;;16.52;11.63;;;;;;;;;;4920753;29;20200;-76
2021/01/05 05:53:56;;;;;;;22.17;12.20;;;;;;;;;;4931696;29;20199;-76
2021/01/05 05:56:37;;;;;;;23.45;14.88;;;;;;;;;;4933286;29;20278;-77
2021/01/05 05:59:05;;;;;;;19.48;12.32;;;;;;;;;;4934471;29;20191;-84
2021/01/05 06:01:35;;;;;;;20.83;12.23;;;;;;;;;;4934532;29;20298;-75
2021/01/05 06:04:02;;;;;;;19.27;12.48;;;;;;;;;;4933285;29;20241;-76
2021/01/05 06:06:29;;;;;;;19.60;12.23;;;;;;;;;;4936823;29;20561;-76
2021/01/05 06:08:56;;;;;;;18.73;11.50;;;;;;;;;;4936639;29;20207;-76
2021/01/05 06:11:23;;;;;;;22.88;12.10;;;;;;;;;;4936664;29;20253;-75
2021/01/05 06:13:50;;;;;;;17.85;11.00;;;;;;;;;;4935008;29;20553;-78
2021/01/05 06:16:17;;;;;;;18.42;11.52;;;;;;;;;;4931436;29;20233;-76
2021/01/05 06:18:44;;;;;;;22.48;13.07;;;;;;;;;;4933677;29;20207;-77
2021/01/05 06:21:11;;;;;;;21.50;13.55;;;;;;;;;;4936029;29;20829;-77
2021/01/05 06:23:38;;;;;;;20.73;11.43;;;;;;;;;;4943149;29;20294;-76
2021/01/05 06:26:04;;;;;;;17.58;11.00;;;;;;;;;;4942579;29;20601;-76
2021/01/05 06:28:31;;;;;;;17.90;11.95;;;;;;;;;;4936344;29;20209;-76
2021/01/05 06:30:59;;;;;;;21.17;12.05;;;;;;;;;;4936412;29;20238;-76
2021/01/05 06:33:26;;;;;;;17.48;11.18;;;;;;;;;;4936331;29;20227;-75
2021/01/05 06:35:52;;;;;;;17.55;11.63;;;;;;;;;;4935465;29;20219;-76
2021/01/05 06:38:19;;;;;;;18.73;12.13;;;;;;;;;;4930754;29;20715;-75
2021/01/05 06:40:46;;;;;;;19.45;11.52;;;;;;;;;;4932451;29;20222;-76
2021/01/05 06:43:13;;;;;;;19.90;11.07;;;;;;;;;;4934565;29;20230;-75
2021/01/05 06:45:40;;;;;;;23.00;12.98;;;;;;;;;;4934080;29;20570;-76
2021/01/05 06:48:08;;;;;;;18.67;11.75;;;;;;;;;;4933609;29;20624;-76
2021/01/05 06:50:34;;;;;;;17.40;11.85;;;;;;;;;;4935682;29;20790;-76
2021/01/05 06:53:01;;;;;;;21.60;12.70;;;;;;;;;;4936188;29;20226;-76
2021/01/05 06:55:28;;;;;;;18.67;10.82;;;;;;;;;;4935993;29;20209;-76
2021/01/05 06:57:55;;;;;;;19.15;12.15;;;;;;;;;;4935250;29;20235;-77
2021/01/05 07:00:23;;;;;;;17.52;11.68;;;;;;;;;;4930531;29;20187;-77
2021/01/05 07:02:50;;;;;;;19.85;13.02;;;;;;;;;;4913913;29;20238;-74
2021/01/05 07:05:18;;;;;;;20.35;12.57;;;;;;;;;;4933284;29;20199;-75
2021/01/05 07:07:45;;;;;;;16.35;11.13;;;;;;;;;;4933097;29;20225;-77
2021/01/05 07:10:13;;;;;;;22.65;12.77;;;;;;;;;;4916024;29;20199;-76
2021/01/05 07:12:40;;;;;;;23.10;13.50;;;;;;;;;;4914208;29;20249;-75
2021/01/05 07:15:07;;;;;;;19.35;12.30;;;;;;;;;;4930936;29;20656;-82
2021/01/05 07:17:34;;;;;;;22.77;12.07;;;;;;;;;;4933746;29;20543;-82
2021/01/05 07:20:01;;;;;;;22.05;12.20;;;;;;;;;;4933231;29;20290;-82
2021/01/05 07:22:29;;;;;;;21.45;11.82;;;;;;;;;;4932980;29;20231;-81
2021/01/05 07:24:55;;;;;;;18.00;12.07;;;;;;;;;;4933178;29;20195;-76
2021/01/05 07:27:22;;;;;;;20.60;12.60;;;;;;;;;;4935575;29;20253;-75
2021/01/05 07:29:49;;;;;;;19.33;11.75;;;;;;;;;;4935170;29;20261;-75
2021/01/05 07:32:16;;;;;;;24.88;16.50;;;;;;;;;;4935039;29;20265;-75
2021/01/05 07:34:43;;;;;;;24.15;14.60;;;;;;;;;;4932696;29;20267;-75
2021/01/05 07:37:12;;;;;;;21.65;14.00;;;;;;;;;;4929786;29;20195;-79
2021/01/05 07:39:40;;;;;;;22.98;15.35;;;;;;;;;;4932055;29;20306;-75
2021/01/05 07:42:15;;;;;;;18.08;12.73;;;;;;;;;;4932661;29;20215;-75
2021/01/05 07:44:42;;;;;;;19.23;13.05;;;;;;;;;;4928456;29;20334;-75
2021/01/05 07:47:09;;;;;;;19.25;12.27;;;;;;;;;;4905279;29;20215;-75
2021/01/05 07:49:36;;;;;;;19.38;11.20;;;;;;;;;;4917738;29;20203;-75
2021/01/05 07:52:03;;;;;;;23.95;13.20;;;;;;;;;;4934793;29;20223;-75
2021/01/05 07:54:30;;;;;;;24.00;13.45;;;;;;;;;;4934617;29;20728;-76
2021/01/05 07:56:57;;;;;;;20.08;13.25;;;;;;;;;;4931838;29;20191;-76
2021/01/05 07:59:24;;;;;;;18.90;11.60;;;;;;;;;;4929038;29;20202;-76
2021/01/05 08:01:51;;;;;;;19.00;12.90;;;;;;;;;;4931886;29;20217;-74
2021/01/05 08:04:18;;;;;;;17.33;11.32;;;;;;;;;;4931966;29;20237;-75
2021/01/05 08:06:44;;;;;;;24.02;12.82;;;;;;;;;;4932269;29;20723;-75
2021/01/05 08:09:11;;;;;;;19.50;12.15;;;;;;;;;;4932314;29;20214;-75
2021/01/05 08:11:39;;;;;;;17.83;11.40;;;;;;;;;;4934352;29;20225;-75
2021/01/05 08:14:06;;;;;;;19.67;12.77;;;;;;;;;;4917431;29;20231;-75
2021/01/05 08:16:33;;;;;;;16.90;11.60;;;;;;;;;;4934394;29;20201;-75
2021/01/05 08:19:00;;;;;;;21.40;12.38;;;;;;;;;;4932188;29;20209;-75
2021/01/05 08:21:27;;;;;;;25.33;15.68;;;;;;;;;;4928490;29;20195;-75
2021/01/05 08:23:56;;;;;;;20.88;12.63;;;;;;;;;;4931210;29;20223;-75
2021/01/05 08:26:23;;;;;;;18.00;11.55;;;;;;;;;;4915326;29;20292;-75
2021/01/05 08:28:50;;;;;;;21.35;11.27;;;;;;;;;;4932156;29;20213;-75
2021/01/05 08:31:18;;;;;;;20.15;12.90;;;;;;;;;;4931748;29;20835;-76
2021/01/05 08:33:45;;;;;;;18.45;13.30;;;;;;;;;;4934085;29;20291;-76
2021/01/05 08:36:11;;;;;;;17.80;11.55;;;;;;;;;;4934074;29;20736;-75
2021/01/05 08:38:38;;;;;;;18.17;10.88;;;;;;;;;;4934478;29;20253;-75
2021/01/05 08:41:05;;;;;;;20.27;11.70;;;;;;;;;;4931831;29;20207;-75
2021/01/05 08:43:32;;;;;;;19.27;12.40;;;;;;;;;;4927508;29;20222;-75
2021/01/05 08:45:59;;;;;;;21.77;12.05;;;;;;;;;;4930289;29;20225;-76
2021/01/05 08:48:26;;;;;;;23.75;14.00;;;;;;;;;;4931364;29;20285;-75
2021/01/05 08:50:53;;;;;;;19.10;12.20;;;;;;;;;;4931682;29;20194;-76
2021/01/05 08:53:20;;;;;;;17.48;11.77;;;;;;;;;;4930529;29;20215;-75
2021/01/05 08:55:47;;;;;;;20.27;12.30;;;;;;;;;;4929994;29;20210;-75
2021/01/05 08:58:14;;;;;;;17.58;11.32;;;;;;;;;;4928714;29;20203;-75
2021/01/05 09:00:41;;;;;;;16.40;12.70;;;;;;;;;;4931559;29;20262;-75
2021/01/05 09:03:08;;;;;;;18.35;11.30;;;;;;;;;;4931318;29;20668;-75
2021/01/05 09:05:35;;;;;;;21.40;11.90;;;;;;;;;;4931995;29;20247;-76
2021/01/05 09:08:02;;;;;;;19.73;11.15;;;;;;;;;;4930824;29;20297;-76
2021/01/05 09:10:29;;;;;;;21.08;11.75;;;;;;;;;;4933935;29;20205;-75
2021/01/05 09:12:56;;;;;;;20.05;12.60;;;;;;;;;;4933886;29;20229;-75
2021/01/05 09:15:23;;;;;;;19.60;11.63;;;;;;;;;;4933826;29;20199;-75
2021/01/05 09:17:51;;;;;;;19.98;12.68;;;;;;;;;;4931158;29;20608;-75
2021/01/05 09:20:19;;;;;;;16.55;10.75;;;;;;;;;;4911706;29;20191;-75
2021/01/05 09:22:47;;;;;;;17.23;12.10;;;;;;;;;;4899625;29;20224;-75
2021/01/05 09:25:14;;;;;;;20.35;12.70;;;;;;;;;;4912695;29;20501;-75
2021/01/05 09:27:41;;;;;;;17.00;11.90;;;;;;;;;;4912522;29;20850;-75
2021/01/05 09:30:09;;;;;;;17.02;11.27;;;;;;;;;;4918746;29;20258;-74
2021/01/05 09:32:36;;;;;;;18.00;11.00;;;;;;;;;;4916147;29;20212;-75
2021/01/05 09:35:04;;;;;;;20.45;11.10;;;;;;;;;;4933776;29;20210;-75
2021/01/05 09:37:30;;;;;;;17.15;11.30;;;;;;;;;;4933744;29;20302;-75
2021/01/05 09:39:58;;;;;;;19.25;11.18;;;;;;;;;;4933386;28;20752;-76
2021/01/05 09:42:25;;;;;;;16.10;9.93;;;;;;;;;;4931423;29;20223;-76
2021/01/05 09:44:52;;;;;;;20.27;11.85;;;;;;;;;;4934239;29;20281;-76
2021/01/05 09:47:19;;;;;;;19.13;11.75;;;;;;;;;;4925935;29;20607;-76
2021/01/05 09:49:46;;;;;;;15.70;11.00;;;;;;;;;;4929771;29;20210;-76
2021/01/05 09:52:13;;;;;;;18.48;11.15;;;;;;;;;;4935043;29;20310;-75
2021/01/05 09:54:42;;;;;;;20.75;12.68;;;;;;;;;;4920098;29;20282;-75
2021/01/05 09:57:09;;;;;;;20.95;12.45;;;;;;;;;;4929932;29;20196;-75
2021/01/05 09:59:39;;;;;;;22.98;13.18;;;;;;;;;;4918249;29;20195;-76
2021/01/05 10:02:06;;;;;;;21.65;13.60;;;;;;;;;;4922088;29;20223;-76
2021/01/05 10:04:33;;;;;;;18.77;11.57;;;;;;;;;;4914161;29;20695;-76
2021/01/05 10:07:00;;;;;;;22.92;13.63;;;;;;;;;;4931462;29;20233;-76
2021/01/05 10:09:27;;;;;;;23.80;12.65;;;;;;;;;;4921794;29;20679;-76
2021/01/05 10:11:54;;;;;;;23.25;13.25;;;;;;;;;;4928631;29;20216;-76
2021/01/05 10:14:22;;;;;;;25.65;15.10;;;;;;;;;;4916983;29;20207;-75
2021/01/05 10:16:53;;;;;;;19.50;12.30;;;;;;;;;;4936932;29;20294;-76
2021/01/05 10:19:20;;;;;;;23.20;13.32;;;;;;;;;;4936484;29;20289;-75
2021/01/05 10:21:47;;;;;;;20.42;12.52;;;;;;;;;;4936361;29;20219;-75
2021/01/05 10:24:14;;;;;;;25.48;13.30;;;;;;;;;;4935047;29;20321;-76
2021/01/05 10:26:41;;;;;;;23.77;13.35;;;;;;;;;;4930790;29;20197;-75
2021/01/05 10:29:10;;;;;;;23.48;14.90;;;;;;;;;;4932989;29;20305;-76
2021/01/05 10:31:38;;;;;;;21.17;13.05;;;;;;;;;;4917279;29;20246;-75
2021/01/05 10:34:05;;;;;;;25.83;13.32;;;;;;;;;;4934203;29;20229;-76
2021/01/05 10:36:32;;;;;;;23.10;12.43;;;;;;;;;;4910444;29;20206;-75
2021/01/05 10:38:59;;;;;;;20.35;13.27;;;;;;;;;;4936355;29;20289;-75
2021/01/05 10:41:32;;;;;;;23.92;13.50;;;;;;;;;;4930141;29;20226;-76
2021/01/05 10:43:59;;;;;;;24.10;14.80;;;;;;;;;;4917159;29;20227;-76
2021/01/05 10:46:26;;;;;;;20.77;14.00;;;;;;;;;;4924166;29;20290;-75
2021/01/05 10:48:54;;;;;;;24.65;13.82;;;;;;;;;;4930555;29;20234;-75
2021/01/05 10:51:20;;;;;;;22.52;14.00;;;;;;;;;;4926937;29;20286;-74
2021/01/05 10:53:47;;;;;;;21.40;12.98;;;;;;;;;;4917663;29;20275;-75
2021/01/05 10:56:15;;;;;;;22.33;13.85;;;;;;;;;;4915735;29;20286;-75
2021/01/05 10:58:42;;;;;;;20.80;13.15;;;;;;;;;;4914578;29;20195;-74
2021/01/05 11:01:09;;;;;;;25.90;15.70;;;;;;;;;;4934224;29;20209;-74
2021/01/05 11:03:36;;;;;;;22.83;14.05;;;;;;;;;;4915235;29;20641;-75
2021/01/05 11:06:04;;;;;;;26.38;15.35;;;;;;;;;;4915961;29;20195;-75
2021/01/05 11:08:30;;;;;;;24.85;14.43;;;;;;;;;;4916533;29;20209;-75
2021/01/05 11:10:57;;;;;;;29.73;15.35;;;;;;;;;;4911671;29;20251;-75
2021/01/05 11:13:24;;;;;;;25.80;14.38;;;;;;;;;;4912487;29;20299;-74
2021/01/05 11:15:51;;;;;;;22.38;13.93;;;;;;;;;;4911867;29;20223;-76
2021/01/05 11:18:18;;;;;;;24.98;13.15;;;;;;;;;;4914377;29;20210;-75
2021/01/05 11:20:44;;;;;;;23.33;13.27;;;;;;;;;;4914601;29;20219;-75
2021/01/05 11:23:12;;;;;;;25.13;14.05;;;;;;;;;;4915385;29;20230;-76
2021/01/05 11:25:40;;;;;;;24.58;14.45;;;;;;;;;;4916257;29;20195;-76
2021/01/05 11:28:06;;;;;;;20.85;14.32;;;;;;;;;;4916312;29;20243;-76
2021/01/05 11:30:33;;;;;;;25.70;14.73;;;;;;;;;;4913914;29;20206;-75
2021/01/05 11:33:00;;;;;;;19.23;13.43;;;;;;;;;;4909198;29;20283;-75
2021/01/05 11:35:27;;;;;;;23.92;15.05;;;;;;;;;;4911648;29;20238;-75
2021/01/05 11:37:54;;;;;;;20.58;13.40;;;;;;;;;;4914412;29;20291;-75
2021/01/05 11:40:22;;;;;;;24.88;16.25;;;;;;;;;;4914179;29;20202;-76
2021/01/05 11:42:49;;;;;;;28.15;16.00;;;;;;;;;;4914137;29;20641;-76
2021/01/05 11:45:16;;;;;;;29.70;16.52;;;;;;;;;;4909695;29;20239;-75
2021/01/05 11:47:43;;;;;;;26.35;15.00;;;;;;;;;;4895927;29;20203;-76
2021/01/05 11:50:11;;;;;;;23.15;14.77;;;;;;;;;;4897207;29;20215;-75
2021/01/05 11:52:38;;;;;;;24.13;15.02;;;;;;;;;;4897146;29;20755;-75
2021/01/05 11:55:05;;;;;;;25.50;13.93;;;;;;;;;;4901492;29;20280;-76
2021/01/05 11:57:33;;;;;;;24.27;14.40;;;;;;;;;;4908222;29;20278;-76
2021/01/05 12:00:00;;;;;;;24.85;14.40;;;;;;;;;;4913587;29;20199;-76
2021/01/05 12:02:26;;;;;;;23.90;15.40;;;;;;;;;;4913831;29;20226;-75
2021/01/05 12:04:53;;;;;;;27.45;15.10;;;;;;;;;;4929276;29;20196;-75
2021/01/05 12:07:23;;;;;;;24.13;13.65;;;;;;;;;;4925043;29;20289;-75
2021/01/05 12:09:50;;;;;;;26.52;14.80;;;;;;;;;;4934093;29;20202;-74
2021/01/05 12:12:16;;;;;;;25.77;15.18;;;;;;;;;;4915445;29;20247;-75
2021/01/05 12:14:44;;;;;;;28.80;14.98;;;;;;;;;;4918354;29;20195;-74
2021/01/05 12:17:11;;;;;;;24.08;13.40;;;;;;;;;;4926177;29;20191;-75
2021/01/05 12:19:40;;;;;;;25.48;14.98;;;;;;;;;;4928554;29;20327;-75
2021/01/05 12:22:08;;;;;;;25.48;14.93;;;;;;;;;;4922690;29;20633;-74
2021/01/05 12:24:37;;;;;;;22.55;14.60;;;;;;;;;;4896231;29;20290;-77
2021/01/05 12:27:05;;;;;;;24.65;14.88;;;;;;;;;;4928676;29;20242;-77
2021/01/05 12:29:33;;;;;;;22.30;13.70;;;;;;;;;;4931171;29;20294;-76
2021/01/05 12:32:01;;;;;;;26.77;16.48;;;;;;;;;;4930889;29;20223;-75
2021/01/05 12:34:29;;;;;;;24.70;14.77;;;;;;;;;;4930025;29;20289;-75
2021/01/05 12:36:56;;;;;;;24.48;13.63;;;;;;;;;;4927521;29;20524;-76
2021/01/05 12:39:25;;;;;;;24.98;14.98;;;;;;;;;;4924852;29;20198;-76
2021/01/05 12:41:51;;;;;;;23.45;14.82;;;;;;;;;;4920150;29;20673;-76
2021/01/05 12:44:19;;;;;;;29.60;16.15;;;;;;;;;;4913819;29;20215;-74
2021/01/05 12:46:46;;;;;;;28.40;15.23;;;;;;;;;;4928799;29;20298;-77
2021/01/05 12:49:15;;;;;;;25.23;15.13;;;;;;;;;;4930022;29;20211;-76
2021/01/05 12:51:43;;;;;;;25.27;14.65;;;;;;;;;;4933612;29;20603;-76
2021/01/05 12:54:13;;;;;;;24.13;13.82;;;;;;;;;;4917220;29;20669;-77
2021/01/05 12:56:40;;;;;;;27.63;15.20;;;;;;;;;;4934116;29;20675;-76
2021/01/05 12:59:06;;;;;;;26.65;16.15;;;;;;;;;;4931316;29;20210;-76
2021/01/05 13:01:33;;;;;;;27.15;15.65;;;;;;;;;;4928528;29;20281;-76
2021/01/05 13:04:01;;;;;;;28.00;16.65;;;;;;;;;;4910030;29;20577;-76
2021/01/05 13:06:31;;;;;;;24.92;15.65;;;;;;;;;;4895808;29;20211;-76
2021/01/05 13:08:58;;;;;;;25.40;14.65;;;;;;;;;;4912723;29;20209;-75
2021/01/05 13:11:25;;;;;;;23.38;14.77;;;;;;;;;;4918061;29;20202;-77
2021/01/05 13:13:52;;;;;;;23.83;14.77;;;;;;;;;;4915213;29;20571;-76
2021/01/05 13:16:25;;;;;;;24.20;15.07;;;;;;;;;;4918921;29;20245;-76
2021/01/05 13:18:52;;;;;;;22.40;14.45;;;;;;;;;;4918654;29;20199;-76
2021/01/05 13:21:26;;;;;;;32.40;18.40;;;;;;;;;;4923661;29;20219;-75
2021/01/05 13:23:53;;;;;;;25.45;15.25;;;;;;;;;;4932034;29;20370;-76
2021/01/05 13:26:20;;;;;;;23.92;15.00;;;;;;;;;;4934817;29;20668;-76
2021/01/05 13:28:47;;;;;;;24.25;16.60;;;;;;;;;;4933410;29;20542;-76
2021/01/05 13:31:14;;;;;;;27.27;15.85;;;;;;;;;;4935316;29;20332;-76
2021/01/05 13:33:41;;;;;;;27.35;16.48;;;;;;;;;;4935305;29;20261;-76
2021/01/05 13:36:08;;;;;;;29.35;16.00;;;;;;;;;;4937223;29;20579;-75
2021/01/05 13:38:35;;;;;;;24.55;15.35;;;;;;;;;;4927166;29;20278;-76
2021/01/05 13:41:02;;;;;;;24.73;15.38;;;;;;;;;;4918522;29;20258;-76
2021/01/05 13:43:29;;;;;;;25.80;15.60;;;;;;;;;;4922091;29;20325;-77
2021/01/05 13:45:56;;;;;;;26.27;14.52;;;;;;;;;;4931627;29;20199;-76
2021/01/05 13:48:23;;;;;;;32.30;14.07;;;;;;;;;;4933714;29;20294;-76
2021/01/05 13:50:54;;;;;;;25.25;14.80;;;;;;;;;;4935107;29;20290;-76
2021/01/05 13:53:20;;;;;;;23.10;13.57;;;;;;;;;;4925294;29;20693;-75
2021/01/05 13:55:47;;;;;;;26.92;15.15;;;;;;;;;;4917940;29;20212;-76
2021/01/05 13:58:15;;;;;;;24.45;15.30;;;;;;;;;;4936483;29;20206;-75
2021/01/05 14:00:41;;;;;;;24.13;14.82;;;;;;;;;;4937086;29;20254;-75
2021/01/05 14:03:08;;;;;;;25.50;15.02;;;;;;;;;;4936554;29;20239;-76
2021/01/05 14:05:36;;;;;;;27.35;16.90;;;;;;;;;;4935893;29;20612;-76
2021/01/05 14:08:03;;;;;;;28.52;15.68;;;;;;;;;;4931366;29;20282;-76
2021/01/05 14:10:30;;;;;;;29.33;16.58;;;;;;;;;;4933021;29;20359;-77
2021/01/05 14:12:56;;;;;;;24.52;14.60;;;;;;;;;;4934444;29;20309;-76
2021/01/05 14:15:26;;;;;;;32.63;17.25;;;;;;;;;;4922120;29;20204;-76
2021/01/05 14:17:53;;;;;;;27.10;17.20;;;;;;;;;;4934603;29;20207;-77
2021/01/05 14:20:20;;;;;;;23.45;15.30;;;;;;;;;;4918307;29;20629;-76
2021/01/05 14:22:47;;;;;;;25.52;14.30;;;;;;;;;;4923242;29;20298;-76